sensor_id;sensor_type;location;lat;lon;timestamp;P1;durP1;ratioP1;P2;durP2;ratioP2
44832;SDS011;30569;51.252;9.830;2022-12-07T05:00:55;15.07;;;8.80;;
44832;SDS011;30569;51.252;9.830;2022-12-07T05:03:20;14.77;;;9.30;;
44832;SDS011;30569;51.252;9.830;2022-12-07T05:05:46;17.10;;;10.00;;
44832;SDS011;30569;51.252;9.830;2022-12-07T05:08:12;17.33;;;10.60;;
44832;SDS011;30569;51.252;9.830;2022-12-07T05:10:38;17.00;;;10.67;;
44832;SDS011;30569;51.252;9.830;2022-12-07T05:13:04;18.10;;;10.83;;
44832;SDS011;30569;51.252;9.830;2022-12-07T05:15:30;16.03;;;10.37;;
44832;SDS011;30569;51.252;9.830;2022-12-07T05:17:55;20.37;;;12.60;;
44832;SDS011;30569;51.252;9.830;2022-12-07T05:20:21;17.97;;;11.83;;
44832;SDS011;30569;51.252;9.830;2022-12-07T05:22:47;18.03;;;11.27;;
44832;SDS011;30569;51.252;9.830;2022-12-07T05:25:13;20.27;;;12.07;;
44832;SDS011;30569;51.252;9.830;2022-12-07T05:27:39;21.83;;;12.97;;
44832;SDS011;30569;51.252;9.830;2022-12-07T05:30:04;24.67;;;12.87;;
44832;SDS011;30569;51.252;9.830;2022-12-07T05:32:31;21.63;;;12.60;;
44832;SDS011;30569;51.252;9.830;2022-12-07T05:34:56;23.50;;;13.77;;
44832;SDS011;30569;51.252;9.830;2022-12-07T05:37:22;22.73;;;13.23;;
44832;SDS011;30569;51.252;9.830;2022-12-07T05:39:48;22.97;;;13.27;;
44832;SDS011;30569;51.252;9.830;2022-12-07T05:42:14;22.70;;;14.10;;
44832;SDS011;30569;51.252;9.830;2022-12-07T05:44:42;24.53;;;13.97;;
44832;SDS011;30569;51.252;9.830;2022-12-07T05:47:09;22.57;;;12.20;;
44832;SDS011;30569;51.252;9.830;2022-12-07T05:49:36;22.67;;;13.63;;
44832;SDS011;30569;51.252;9.830;2022-12-07T05:52:02;20.50;;;12.27;;
44832;SDS011;30569;51.252;9.830;2022-12-07T05:54:28;25.40;;;13.17;;
44832;SDS011;30569;51.252;9.830;2022-12-07T05:56:54;23.00;;;11.93;;
44832;SDS011;30569;51.252;9.830;2022-12-07T05:59:20;18.97;;;12.23;;
44832;SDS011;30569;51.252;9.830;2022-12-07T06:04:15;22.00;;;14.00;;
44832;SDS011;30569;51.252;9.830;2022-12-07T06:06:42;22.73;;;12.67;;
44832;SDS011;30569;51.252;9.830;2022-12-07T06:09:07;21.50;;;12.37;;
44832;SDS011;30569;51.252;9.830;2022-12-07T06:11:33;22.27;;;12.93;;
44832;SDS011;30569;51.252;9.830;2022-12-07T06:14:17;19.70;;;12.57;;
44832;SDS011;30569;51.252;9.830;2022-12-07T06:16:43;32.97;;;21.93;;
44832;SDS011;30569;51.252;9.830;2022-12-07T06:19:08;27.57;;;17.97;;
44832;SDS011;30569;51.252;9.830;2022-12-07T06:21:34;20.57;;;11.60;;
44832;SDS011;30569;51.252;9.830;2022-12-07T06:23:59;22.37;;;11.50;;
44832;SDS011;30569;51.252;9.830;2022-12-07T06:26:25;19.20;;;10.37;;
44832;SDS011;30569;51.252;9.830;2022-12-07T06:28:50;17.07;;;10.73;;
44832;SDS011;30569;51.252;9.830;2022-12-07T06:31:16;22.10;;;10.60;;
44832;SDS011;30569;51.252;9.830;2022-12-07T06:33:42;17.30;;;10.03;;
44832;SDS011;30569;51.252;9.830;2022-12-07T06:36:07;29.27;;;17.70;;
44832;SDS011;30569;51.252;9.830;2022-12-07T06:38:33;28.10;;;17.13;;
44832;SDS011;30569;51.252;9.830;2022-12-07T06:40:59;23.33;;;14.93;;
44832;SDS011;30569;51.252;9.830;2022-12-07T06:43:25;23.97;;;13.00;;
44832;SDS011;30569;51.252;9.830;2022-12-07T06:45:50;17.30;;;10.40;;
44832;SDS011;30569;51.252;9.830;2022-12-07T06:48:16;20.30;;;10.83;;
44832;SDS011;30569;51.252;9.830;2022-12-07T06:50:44;25.50;;;11.23;;
44832;SDS011;30569;51.252;9.830;2022-12-07T06:53:10;20.47;;;10.40;;
44832;SDS011;30569;51.252;9.830;2022-12-07T06:55:36;20.53;;;10.40;;
44832;SDS011;30569;51.252;9.830;2022-12-07T06:58:02;17.97;;;9.20;;
44832;SDS011;30569;51.252;9.830;2022-12-07T07:00:28;30.73;;;16.80;;
44832;SDS011;30569;51.252;9.830;2022-12-07T07:02:54;16.13;;;10.00;;
44832;SDS011;30569;51.252;9.830;2022-12-07T07:05:19;15.53;;;8.80;;
44832;SDS011;30569;51.252;9.830;2022-12-07T07:07:47;25.10;;;14.70;;
44832;SDS011;30569;51.252;9.830;2022-12-07T07:10:15;18.17;;;7.93;;
44832;SDS011;30569;51.252;9.830;2022-12-07T07:12:41;18.97;;;7.67;;
44832;SDS011;30569;51.252;9.830;2022-12-07T07:15:06;18.47;;;8.27;;
44832;SDS011;30569;51.252;9.830;2022-12-07T07:17:32;15.70;;;8.10;;
44832;SDS011;30569;51.252;9.830;2022-12-07T07:19:58;12.47;;;6.60;;
44832;SDS011;30569;51.252;9.830;2022-12-07T07:22:24;14.67;;;7.37;;
44832;SDS011;30569;51.252;9.830;2022-12-07T07:24:50;13.07;;;6.30;;
44832;SDS011;30569;51.252;9.830;2022-12-07T07:27:16;13.73;;;6.70;;
44832;SDS011;30569;51.252;9.830;2022-12-07T07:29:42;14.77;;;6.47;;
44832;SDS011;30569;51.252;9.830;2022-12-07T07:32:07;16.67;;;6.67;;
44832;SDS011;30569;51.252;9.830;2022-12-07T07:34:33;16.33;;;7.50;;
44832;SDS011;30569;51.252;9.830;2022-12-07T07:36:59;14.20;;;7.13;;
44832;SDS011;30569;51.252;9.830;2022-12-07T07:39:25;14.83;;;7.30;;
44832;SDS011;30569;51.252;9.830;2022-12-07T07:41:50;16.13;;;7.10;;
44832;SDS011;30569;51.252;9.830;2022-12-07T07:44:16;12.47;;;6.63;;
44832;SDS011;30569;51.252;9.830;2022-12-07T07:46:42;12.97;;;7.23;;
44832;SDS011;30569;51.252;9.830;2022-12-07T07:49:09;14.77;;;6.63;;
44832;SDS011;30569;51.252;9.830;2022-12-07T07:51:35;15.77;;;7.57;;
44832;SDS011;30569;51.252;9.830;2022-12-07T07:54:02;13.43;;;6.47;;
44832;SDS011;30569;51.252;9.830;2022-12-07T07:56:28;18.03;;;7.53;;
44832;SDS011;30569;51.252;9.830;2022-12-07T07:58:53;13.03;;;6.27;;
44832;SDS011;30569;51.252;9.830;2022-12-07T08:01:19;13.00;;;6.60;;
44832;SDS011;30569;51.252;9.830;2022-12-07T08:03:46;14.43;;;7.50;;
44832;SDS011;30569;51.252;9.830;2022-12-07T08:06:12;14.73;;;7.00;;
44832;SDS011;30569;51.252;9.830;2022-12-07T08:08:37;15.83;;;8.30;;
44832;SDS011;30569;51.252;9.830;2022-12-07T08:11:06;20.13;;;8.47;;
44832;SDS011;30569;51.252;9.830;2022-12-07T08:13:33;14.07;;;7.77;;
44832;SDS011;30569;51.252;9.830;2022-12-07T08:15:59;14.70;;;7.83;;
44832;SDS011;30569;51.252;9.830;2022-12-07T08:18:37;9.87;;;6.73;;
44832;SDS011;30569;51.252;9.830;2022-12-07T08:21:05;15.30;;;7.70;;
44832;SDS011;30569;51.252;9.830;2022-12-07T08:23:31;13.83;;;7.03;;
44832;SDS011;30569;51.252;9.830;2022-12-07T08:26:00;21.77;;;9.40;;
44832;SDS011;30569;51.252;9.830;2022-12-07T08:28:27;34.83;;;16.03;;
44832;SDS011;30569;51.252;9.830;2022-12-07T08:30:58;20.33;;;9.73;;
44832;SDS011;30569;51.252;9.830;2022-12-07T08:33:28;22.00;;;11.97;;
44832;SDS011;30569;51.252;9.830;2022-12-07T08:35:54;18.67;;;9.07;;
44832;SDS011;30569;51.252;9.830;2022-12-07T08:38:20;16.63;;;7.53;;
44832;SDS011;30569;51.252;9.830;2022-12-07T08:40:56;19.27;;;7.07;;
44832;SDS011;30569;51.252;9.830;2022-12-07T08:43:22;13.33;;;6.70;;
44832;SDS011;30569;51.252;9.830;2022-12-07T08:45:50;17.93;;;6.70;;
44832;SDS011;30569;51.252;9.830;2022-12-07T08:48:28;10.87;;;6.03;;
44832;SDS011;30569;51.252;9.830;2022-12-07T08:50:55;16.50;;;9.33;;
44832;SDS011;30569;51.252;9.830;2022-12-07T08:53:21;11.87;;;6.33;;
44832;SDS011;30569;51.252;9.830;2022-12-07T08:55:47;13.53;;;6.13;;
44832;SDS011;30569;51.252;9.830;2022-12-07T08:58:14;13.43;;;6.90;;
44832;SDS011;30569;51.252;9.830;2022-12-07T09:00:40;15.40;;;6.10;;
44832;SDS011;30569;51.252;9.830;2022-12-07T09:03:05;14.87;;;6.27;;
44832;SDS011;30569;51.252;9.830;2022-12-07T09:05:32;11.97;;;5.80;;
44832;SDS011;30569;51.252;9.830;2022-12-07T09:07:59;11.93;;;5.53;;
44832;SDS011;30569;51.252;9.830;2022-12-07T09:10:26;12.47;;;6.00;;
44832;SDS011;30569;51.252;9.830;2022-12-07T09:12:52;16.37;;;9.00;;
44832;SDS011;30569;51.252;9.830;2022-12-07T09:15:17;18.33;;;8.53;;
44832;SDS011;30569;51.252;9.830;2022-12-07T09:17:43;18.53;;;9.00;;
44832;SDS011;30569;51.252;9.830;2022-12-07T09:20:09;11.10;;;5.97;;
44832;SDS011;30569;51.252;9.830;2022-12-07T09:22:34;13.13;;;6.37;;
44832;SDS011;30569;51.252;9.830;2022-12-07T09:25:00;49.23;;;22.37;;
44832;SDS011;30569;51.252;9.830;2022-12-07T09:27:27;10.93;;;5.80;;
44832;SDS011;30569;51.252;9.830;2022-12-07T09:29:53;19.10;;;6.40;;
44832;SDS011;30569;51.252;9.830;2022-12-07T09:32:19;8.50;;;4.70;;
44832;SDS011;30569;51.252;9.830;2022-12-07T09:34:45;9.03;;;4.23;;
44832;SDS011;30569;51.252;9.830;2022-12-07T09:37:11;12.33;;;5.50;;
44832;SDS011;30569;51.252;9.830;2022-12-07T09:39:40;8.37;;;4.83;;
44832;SDS011;30569;51.252;9.830;2022-12-07T09:42:06;18.80;;;9.33;;
44832;SDS011;30569;51.252;9.830;2022-12-07T09:44:33;10.03;;;4.87;;
44832;SDS011;30569;51.252;9.830;2022-12-07T09:46:59;11.67;;;7.00;;
44832;SDS011;30569;51.252;9.830;2022-12-07T09:49:27;54.07;;;23.80;;
44832;SDS011;30569;51.252;9.830;2022-12-07T09:51:59;12.17;;;7.20;;
44832;SDS011;30569;51.252;9.830;2022-12-07T09:54:27;9.20;;;4.70;;
44832;SDS011;30569;51.252;9.830;2022-12-07T09:56:54;14.03;;;5.97;;
44832;SDS011;30569;51.252;9.830;2022-12-07T09:59:19;9.97;;;4.73;;
44832;SDS011;30569;51.252;9.830;2022-12-07T10:01:49;19.23;;;9.17;;
44832;SDS011;30569;51.252;9.830;2022-12-07T10:04:16;17.80;;;8.33;;
44832;SDS011;30569;51.252;9.830;2022-12-07T10:06:44;14.07;;;5.43;;
44832;SDS011;30569;51.252;9.830;2022-12-07T10:09:15;11.97;;;4.70;;
44832;SDS011;30569;51.252;9.830;2022-12-07T10:12:01;9.63;;;5.23;;
44832;SDS011;30569;51.252;9.830;2022-12-07T10:14:29;13.07;;;6.43;;
44832;SDS011;30569;51.252;9.830;2022-12-07T10:16:56;10.70;;;4.33;;
44832;SDS011;30569;51.252;9.830;2022-12-07T10:19:26;8.73;;;4.13;;
44832;SDS011;30569;51.252;9.830;2022-12-07T10:24:27;9.18;;;4.05;;
44832;SDS011;30569;51.252;9.830;2022-12-07T10:26:53;7.17;;;4.20;;
44832;SDS011;30569;51.252;9.830;2022-12-07T10:32:00;7.73;;;4.00;;
44832;SDS011;30569;51.252;9.830;2022-12-07T10:34:35;20.13;;;7.50;;
44832;SDS011;30569;51.252;9.830;2022-12-07T10:39:43;11.10;;;5.33;;
44832;SDS011;30569;51.252;9.830;2022-12-07T10:42:27;8.40;;;3.87;;
44832;SDS011;30569;51.252;9.830;2022-12-07T10:45:13;7.70;;;4.40;;
44832;SDS011;30569;51.252;9.830;2022-12-07T10:47:49;16.77;;;6.60;;
44832;SDS011;30569;51.252;9.830;2022-12-07T10:50:43;10.10;;;4.93;;
44832;SDS011;30569;51.252;9.830;2022-12-07T11:20:34;22.90;;;12.83;;
44832;SDS011;30569;51.252;9.830;2022-12-07T11:23:29;9.80;;;4.73;;
44832;SDS011;30569;51.252;9.830;2022-12-07T11:26:14;8.63;;;3.53;;
44832;SDS011;30569;51.252;9.830;2022-12-07T11:29:06;4.77;;;2.80;;
44832;SDS011;30569;51.252;9.830;2022-12-07T11:34:51;9.35;;;3.97;;
44832;SDS011;30569;51.252;9.830;2022-12-07T11:37:37;7.07;;;3.13;;
44832;SDS011;30569;51.252;9.830;2022-12-07T11:45:43;18.27;;;12.07;;
44832;SDS011;30569;51.252;9.830;2022-12-07T11:48:27;6.53;;;2.63;;
44832;SDS011;30569;51.252;9.830;2022-12-07T11:50:59;7.90;;;3.50;;
44832;SDS011;30569;51.252;9.830;2022-12-07T11:56:12;12.45;;;4.22;;
44832;SDS011;30569;51.252;9.830;2022-12-07T12:06:39;7.90;;;3.20;;
44832;SDS011;30569;51.252;9.830;2022-12-07T12:18:10;9.60;;;3.50;;
44832;SDS011;30569;51.252;9.830;2022-12-07T12:25:47;5.77;;;2.80;;
44832;SDS011;30569;51.252;9.830;2022-12-07T12:28:50;9.40;;;4.40;;
44832;SDS011;30569;51.252;9.830;2022-12-07T12:33:46;6.87;;;2.27;;
44832;SDS011;30569;51.252;9.830;2022-12-07T12:36:18;8.20;;;3.23;;
44832;SDS011;30569;51.252;9.830;2022-12-07T12:54:29;11.97;;;3.90;;
44832;SDS011;30569;51.252;9.830;2022-12-07T13:13:00;11.03;;;6.00;;
44832;SDS011;30569;51.252;9.830;2022-12-07T13:15:50;18.03;;;8.97;;
44832;SDS011;30569;51.252;9.830;2022-12-07T13:26:20;17.57;;;5.77;;
44832;SDS011;30569;51.252;9.830;2022-12-07T13:34:04;42.63;;;17.00;;
44832;SDS011;30569;51.252;9.830;2022-12-07T13:36:50;12.40;;;6.20;;
44832;SDS011;30569;51.252;9.830;2022-12-07T13:39:21;6.37;;;3.03;;
44832;SDS011;30569;51.252;9.830;2022-12-07T13:44:21;7.43;;;3.13;;
44832;SDS011;30569;51.252;9.830;2022-12-07T13:49:32;4.63;;;2.57;;
44832;SDS011;30569;51.252;9.830;2022-12-07T13:52:35;5.67;;;2.60;;
44832;SDS011;30569;51.252;9.830;2022-12-07T13:54:56;6.40;;;2.70;;
44832;SDS011;30569;51.252;9.830;2022-12-07T13:57:24;9.73;;;2.83;;
44832;SDS011;30569;51.252;9.830;2022-12-07T13:59:51;8.93;;;3.10;;
44832;SDS011;30569;51.252;9.830;2022-12-07T14:02:28;9.60;;;4.77;;
44832;SDS011;30569;51.252;9.830;2022-12-07T14:05:22;7.17;;;3.50;;
44832;SDS011;30569;51.252;9.830;2022-12-07T14:08:34;5.60;;;2.80;;
44832;SDS011;30569;51.252;9.830;2022-12-07T14:10:39;10.00;;;6.13;;
44832;SDS011;30569;51.252;9.830;2022-12-07T14:15:57;9.20;;;3.40;;
44832;SDS011;30569;51.252;9.830;2022-12-07T14:18:27;10.37;;;3.50;;
44832;SDS011;30569;51.252;9.830;2022-12-07T14:21:14;9.27;;;3.40;;
44832;SDS011;30569;51.252;9.830;2022-12-07T14:23:43;9.93;;;3.17;;
44832;SDS011;30569;51.252;9.830;2022-12-07T14:26:13;9.97;;;2.90;;
44832;SDS011;30569;51.252;9.830;2022-12-07T14:28:43;7.68;;;2.90;;
44832;SDS011;30569;51.252;9.830;2022-12-07T14:33:39;8.20;;;3.63;;
44832;SDS011;30569;51.252;9.830;2022-12-07T14:36:05;8.43;;;3.10;;
44832;SDS011;30569;51.252;9.830;2022-12-07T14:38:33;9.00;;;3.83;;
44832;SDS011;30569;51.252;9.830;2022-12-07T14:40:59;11.23;;;4.73;;
44832;SDS011;30569;51.252;9.830;2022-12-07T14:43:44;13.37;;;5.80;;
44832;SDS011;30569;51.252;9.830;2022-12-07T14:46:10;11.20;;;3.67;;
44832;SDS011;30569;51.252;9.830;2022-12-07T14:48:35;10.83;;;4.03;;
44832;SDS011;30569;51.252;9.830;2022-12-07T14:51:01;13.63;;;5.00;;
44832;SDS011;30569;51.252;9.830;2022-12-07T14:53:29;14.20;;;4.80;;
44832;SDS011;30569;51.252;9.830;2022-12-07T14:55:59;9.50;;;3.50;;
44832;SDS011;30569;51.252;9.830;2022-12-07T14:58:25;12.90;;;4.50;;
44832;SDS011;30569;51.252;9.830;2022-12-07T15:00:51;14.23;;;6.47;;
44832;SDS011;30569;51.252;9.830;2022-12-07T15:03:17;14.17;;;3.50;;
44832;SDS011;30569;51.252;9.830;2022-12-07T15:05:42;10.00;;;4.10;;
44832;SDS011;30569;51.252;9.830;2022-12-07T15:08:08;9.00;;;4.17;;
44832;SDS011;30569;51.252;9.830;2022-12-07T15:10:36;10.63;;;4.00;;
44832;SDS011;30569;51.252;9.830;2022-12-07T15:13:03;10.37;;;3.80;;
44832;SDS011;30569;51.252;9.830;2022-12-07T15:15:49;10.60;;;4.87;;
44832;SDS011;30569;51.252;9.830;2022-12-07T15:18:17;13.33;;;4.83;;
44832;SDS011;30569;51.252;9.830;2022-12-07T15:20:44;8.83;;;4.40;;
44832;SDS011;30569;51.252;9.830;2022-12-07T15:23:10;14.87;;;5.57;;
44832;SDS011;30569;51.252;9.830;2022-12-07T15:25:39;8.53;;;4.93;;
44832;SDS011;30569;51.252;9.830;2022-12-07T15:28:06;8.87;;;4.90;;
44832;SDS011;30569;51.252;9.830;2022-12-07T15:30:32;10.07;;;5.03;;
44832;SDS011;30569;51.252;9.830;2022-12-07T15:32:58;13.17;;;5.27;;
44832;SDS011;30569;51.252;9.830;2022-12-07T15:35:23;11.93;;;4.57;;
44832;SDS011;30569;51.252;9.830;2022-12-07T15:37:49;15.07;;;4.30;;
44832;SDS011;30569;51.252;9.830;2022-12-07T15:40:15;9.67;;;3.80;;
44832;SDS011;30569;51.252;9.830;2022-12-07T15:42:41;13.80;;;6.53;;
44832;SDS011;30569;51.252;9.830;2022-12-07T15:45:07;9.50;;;3.90;;
44832;SDS011;30569;51.252;9.830;2022-12-07T15:47:41;13.20;;;4.57;;
44832;SDS011;30569;51.252;9.830;2022-12-07T15:50:10;9.90;;;4.15;;
44832;SDS011;30569;51.252;9.830;2022-12-07T15:52:37;12.70;;;5.23;;
44832;SDS011;30569;51.252;9.830;2022-12-07T15:55:03;12.30;;;5.83;;
44832;SDS011;30569;51.252;9.830;2022-12-07T15:57:30;10.40;;;3.87;;
44832;SDS011;30569;51.252;9.830;2022-12-07T15:59:57;8.50;;;4.20;;
44832;SDS011;30569;51.252;9.830;2022-12-07T16:02:23;14.80;;;5.70;;
44832;SDS011;30569;51.252;9.830;2022-12-07T16:04:49;11.67;;;6.10;;
44832;SDS011;30569;51.252;9.830;2022-12-07T16:07:15;9.60;;;5.20;;
44832;SDS011;30569;51.252;9.830;2022-12-07T16:09:42;9.03;;;4.77;;
44832;SDS011;30569;51.252;9.830;2022-12-07T16:12:08;10.67;;;5.17;;
44832;SDS011;30569;51.252;9.830;2022-12-07T16:14:34;10.43;;;4.63;;
44832;SDS011;30569;51.252;9.830;2022-12-07T16:17:00;9.10;;;4.90;;
44832;SDS011;30569;51.252;9.830;2022-12-07T16:19:26;10.33;;;5.37;;
44832;SDS011;30569;51.252;9.830;2022-12-07T16:21:51;14.03;;;4.70;;
44832;SDS011;30569;51.252;9.830;2022-12-07T16:24:17;10.20;;;4.47;;
44832;SDS011;30569;51.252;9.830;2022-12-07T16:26:43;9.30;;;4.70;;
44832;SDS011;30569;51.252;9.830;2022-12-07T16:29:10;11.33;;;5.90;;
44832;SDS011;30569;51.252;9.830;2022-12-07T16:31:38;9.60;;;4.80;;
44832;SDS011;30569;51.252;9.830;2022-12-07T16:34:04;11.23;;;5.57;;
44832;SDS011;30569;51.252;9.830;2022-12-07T16:36:30;10.20;;;5.37;;
44832;SDS011;30569;51.252;9.830;2022-12-07T16:38:57;43.00;;;8.73;;
44832;SDS011;30569;51.252;9.830;2022-12-07T16:41:24;21.97;;;10.80;;
44832;SDS011;30569;51.252;9.830;2022-12-07T16:43:50;17.00;;;8.83;;
44832;SDS011;30569;51.252;9.830;2022-12-07T16:46:16;16.57;;;8.70;;
44832;SDS011;30569;51.252;9.830;2022-12-07T16:48:42;19.23;;;8.03;;
44832;SDS011;30569;51.252;9.830;2022-12-07T16:51:09;12.87;;;6.17;;
44832;SDS011;30569;51.252;9.830;2022-12-07T16:53:37;8.57;;;4.90;;
44832;SDS011;30569;51.252;9.830;2022-12-07T16:56:12;12.97;;;5.30;;
44832;SDS011;30569;51.252;9.830;2022-12-07T16:58:41;13.30;;;4.70;;
44832;SDS011;30569;51.252;9.830;2022-12-07T17:01:11;9.23;;;4.80;;
44832;SDS011;30569;51.252;9.830;2022-12-07T17:03:56;9.67;;;5.03;;
44832;SDS011;30569;51.252;9.830;2022-12-07T17:06:23;12.17;;;5.80;;
44832;SDS011;30569;51.252;9.830;2022-12-07T17:08:50;12.47;;;6.43;;
44832;SDS011;30569;51.252;9.830;2022-12-07T17:11:18;21.83;;;11.00;;
44832;SDS011;30569;51.252;9.830;2022-12-07T17:13:48;14.47;;;7.63;;
44832;SDS011;30569;51.252;9.830;2022-12-07T17:16:32;16.10;;;8.40;;
44832;SDS011;30569;51.252;9.830;2022-12-07T17:18:59;15.03;;;7.77;;
44832;SDS011;30569;51.252;9.830;2022-12-07T17:21:28;11.87;;;6.13;;
44832;SDS011;30569;51.252;9.830;2022-12-07T17:23:53;11.37;;;6.70;;
44832;SDS011;30569;51.252;9.830;2022-12-07T17:26:20;12.20;;;5.53;;
44832;SDS011;30569;51.252;9.830;2022-12-07T17:28:48;10.83;;;5.07;;
44832;SDS011;30569;51.252;9.830;2022-12-07T17:31:15;15.00;;;6.53;;
44832;SDS011;30569;51.252;9.830;2022-12-07T17:33:42;16.73;;;7.40;;
44832;SDS011;30569;51.252;9.830;2022-12-07T17:38:44;12.00;;;4.63;;
44832;SDS011;30569;51.252;9.830;2022-12-07T17:41:20;9.53;;;4.60;;
44832;SDS011;30569;51.252;9.830;2022-12-07T17:44:10;13.57;;;4.43;;
44832;SDS011;30569;51.252;9.830;2022-12-07T17:46:38;8.40;;;4.33;;
44832;SDS011;30569;51.252;9.830;2022-12-07T17:49:04;11.87;;;4.40;;
44832;SDS011;30569;51.252;9.830;2022-12-07T17:51:30;10.57;;;4.30;;
44832;SDS011;30569;51.252;9.830;2022-12-07T17:54:14;11.77;;;4.72;;
44832;SDS011;30569;51.252;9.830;2022-12-07T17:56:40;9.20;;;4.40;;
44832;SDS011;30569;51.252;9.830;2022-12-07T17:59:06;10.07;;;4.37;;
44832;SDS011;30569;51.252;9.830;2022-12-07T18:01:32;11.13;;;4.73;;
44832;SDS011;30569;51.252;9.830;2022-12-07T18:03:58;9.43;;;4.93;;
44832;SDS011;30569;51.252;9.830;2022-12-07T18:06:24;8.47;;;4.57;;
44832;SDS011;30569;51.252;9.830;2022-12-07T18:08:50;8.30;;;4.97;;
44832;SDS011;30569;51.252;9.830;2022-12-07T18:11:16;9.60;;;5.60;;
44832;SDS011;30569;51.252;9.830;2022-12-07T18:13:42;10.60;;;5.73;;
44832;SDS011;30569;51.252;9.830;2022-12-07T18:16:13;11.17;;;6.13;;
44832;SDS011;30569;51.252;9.830;2022-12-07T18:18:41;17.38;;;7.88;;
44832;SDS011;30569;51.252;9.830;2022-12-07T18:21:12;19.27;;;9.93;;
44832;SDS011;30569;51.252;9.830;2022-12-07T18:23:43;16.60;;;7.20;;
44832;SDS011;30569;51.252;9.830;2022-12-07T18:26:09;11.07;;;7.20;;
44832;SDS011;30569;51.252;9.830;2022-12-07T18:28:37;14.60;;;7.50;;
44832;SDS011;30569;51.252;9.830;2022-12-07T18:31:03;13.00;;;8.03;;
44832;SDS011;30569;51.252;9.830;2022-12-07T18:33:29;17.60;;;8.70;;
44832;SDS011;30569;51.252;9.830;2022-12-07T18:35:57;11.50;;;6.97;;
44832;SDS011;30569;51.252;9.830;2022-12-07T18:38:24;20.37;;;6.97;;
44832;SDS011;30569;51.252;9.830;2022-12-07T18:40:50;12.40;;;6.43;;
44832;SDS011;30569;51.252;9.830;2022-12-07T18:43:16;20.07;;;7.37;;
44832;SDS011;30569;51.252;9.830;2022-12-07T18:45:43;9.73;;;5.53;;
44832;SDS011;30569;51.252;9.830;2022-12-07T18:48:14;11.73;;;6.20;;
44832;SDS011;30569;51.252;9.830;2022-12-07T18:50:41;12.60;;;6.10;;
44832;SDS011;30569;51.252;9.830;2022-12-07T18:53:08;13.00;;;5.40;;
44832;SDS011;30569;51.252;9.830;2022-12-07T18:55:34;13.03;;;5.23;;
44832;SDS011;30569;51.252;9.830;2022-12-07T18:58:00;9.27;;;5.20;;
44832;SDS011;30569;51.252;9.830;2022-12-07T19:00:27;14.27;;;6.03;;
44832;SDS011;30569;51.252;9.830;2022-12-07T19:02:54;15.23;;;7.77;;
44832;SDS011;30569;51.252;9.830;2022-12-07T19:05:20;11.50;;;5.83;;
44832;SDS011;30569;51.252;9.830;2022-12-07T19:07:47;20.33;;;6.80;;
44832;SDS011;30569;51.252;9.830;2022-12-07T19:10:14;9.93;;;5.33;;
44832;SDS011;30569;51.252;9.830;2022-12-07T19:12:40;11.63;;;7.43;;
44832;SDS011;30569;51.252;9.830;2022-12-07T19:15:07;16.93;;;7.73;;
44832;SDS011;30569;51.252;9.830;2022-12-07T19:17:34;14.73;;;7.97;;
44832;SDS011;30569;51.252;9.830;2022-12-07T19:20:00;8.80;;;5.80;;
44832;SDS011;30569;51.252;9.830;2022-12-07T19:22:28;12.93;;;6.80;;
44832;SDS011;30569;51.252;9.830;2022-12-07T19:24:54;14.13;;;7.53;;
44832;SDS011;30569;51.252;9.830;2022-12-07T19:27:20;21.50;;;11.00;;
44832;SDS011;30569;51.252;9.830;2022-12-07T19:29:47;16.47;;;10.20;;
44832;SDS011;30569;51.252;9.830;2022-12-07T19:32:13;16.00;;;7.27;;
44832;SDS011;30569;51.252;9.830;2022-12-07T19:34:40;13.77;;;8.07;;
44832;SDS011;30569;51.252;9.830;2022-12-07T19:37:07;10.33;;;6.40;;
44832;SDS011;30569;51.252;9.830;2022-12-07T19:39:35;12.60;;;5.63;;
44832;SDS011;30569;51.252;9.830;2022-12-07T19:42:01;11.67;;;6.43;;
44832;SDS011;30569;51.252;9.830;2022-12-07T19:44:27;16.10;;;6.40;;
44832;SDS011;30569;51.252;9.830;2022-12-07T19:46:55;12.77;;;6.23;;
44832;SDS011;30569;51.252;9.830;2022-12-07T19:49:22;9.70;;;6.23;;
44832;SDS011;30569;51.252;9.830;2022-12-07T19:51:50;17.00;;;6.97;;
44832;SDS011;30569;51.252;9.830;2022-12-07T19:54:20;11.23;;;6.87;;
44832;SDS011;30569;51.252;9.830;2022-12-07T19:56:48;17.67;;;7.50;;
44832;SDS011;30569;51.252;9.830;2022-12-07T19:59:15;11.50;;;6.63;;
44832;SDS011;30569;51.252;9.830;2022-12-07T20:01:41;12.90;;;6.37;;
44832;SDS011;30569;51.252;9.830;2022-12-07T20:04:09;15.37;;;6.87;;
44832;SDS011;30569;51.252;9.830;2022-12-07T20:06:37;15.83;;;6.80;;
44832;SDS011;30569;51.252;9.830;2022-12-07T20:09:03;14.73;;;7.23;;
44832;SDS011;30569;51.252;9.830;2022-12-07T20:11:30;14.67;;;6.80;;
44832;SDS011;30569;51.252;9.830;2022-12-07T20:14:15;15.17;;;7.80;;
44832;SDS011;30569;51.252;9.830;2022-12-07T20:16:40;14.40;;;7.47;;
44832;SDS011;30569;51.252;9.830;2022-12-07T20:19:08;11.10;;;6.70;;
44832;SDS011;30569;51.252;9.830;2022-12-07T20:21:35;12.90;;;7.53;;
44832;SDS011;30569;51.252;9.830;2022-12-07T20:24:03;13.67;;;7.83;;
44832;SDS011;30569;51.252;9.830;2022-12-07T20:26:32;14.40;;;7.33;;
44832;SDS011;30569;51.252;9.830;2022-12-07T20:28:58;16.27;;;8.03;;
44832;SDS011;30569;51.252;9.830;2022-12-07T20:31:24;16.47;;;8.53;;
44832;SDS011;30569;51.252;9.830;2022-12-07T20:33:50;18.37;;;8.57;;
44832;SDS011;30569;51.252;9.830;2022-12-07T20:36:16;15.43;;;8.20;;
44832;SDS011;30569;51.252;9.830;2022-12-07T20:38:44;14.13;;;8.03;;
44832;SDS011;30569;51.252;9.830;2022-12-07T20:41:12;14.77;;;7.63;;
44832;SDS011;30569;51.252;9.830;2022-12-07T20:44:00;15.10;;;8.50;;
44832;SDS011;30569;51.252;9.830;2022-12-07T20:46:27;20.93;;;8.03;;
44832;SDS011;30569;51.252;9.830;2022-12-07T20:48:53;12.93;;;7.40;;
44832;SDS011;30569;51.252;9.830;2022-12-07T20:51:19;17.27;;;7.93;;
44832;SDS011;30569;51.252;9.830;2022-12-07T20:53:44;13.00;;;7.57;;
44832;SDS011;30569;51.252;9.830;2022-12-07T20:56:17;12.23;;;6.70;;
44832;SDS011;30569;51.252;9.830;2022-12-07T20:58:44;20.92;;;7.60;;
44832;SDS011;30569;51.252;9.830;2022-12-07T21:01:10;15.47;;;6.87;;
44832;SDS011;30569;51.252;9.830;2022-12-07T21:03:35;9.40;;;6.03;;
44832;SDS011;30569;51.252;9.830;2022-12-07T21:06:01;13.23;;;7.40;;
44832;SDS011;30569;51.252;9.830;2022-12-07T21:08:28;14.40;;;6.90;;
44832;SDS011;30569;51.252;9.830;2022-12-07T21:10:53;14.10;;;7.37;;
44832;SDS011;30569;51.252;9.830;2022-12-07T21:13:19;13.50;;;6.93;;
44832;SDS011;30569;51.252;9.830;2022-12-07T21:15:45;13.97;;;7.47;;
44832;SDS011;30569;51.252;9.830;2022-12-07T21:18:11;14.60;;;7.37;;
44832;SDS011;30569;51.252;9.830;2022-12-07T21:20:37;12.93;;;5.87;;
44832;SDS011;30569;51.252;9.830;2022-12-07T21:23:03;11.97;;;6.53;;
44832;SDS011;30569;51.252;9.830;2022-12-07T21:25:29;18.83;;;8.40;;
44832;SDS011;30569;51.252;9.830;2022-12-07T21:27:54;14.33;;;8.20;;
44832;SDS011;30569;51.252;9.830;2022-12-07T21:30:20;11.37;;;7.03;;
44832;SDS011;30569;51.252;9.830;2022-12-07T21:32:45;11.30;;;6.77;;
44832;SDS011;30569;51.252;9.830;2022-12-07T21:35:11;13.57;;;7.27;;
44832;SDS011;30569;51.252;9.830;2022-12-07T21:37:36;13.47;;;6.80;;
44832;SDS011;30569;51.252;9.830;2022-12-07T21:40:03;13.63;;;7.73;;
44832;SDS011;30569;51.252;9.830;2022-12-07T21:42:29;11.63;;;7.30;;
44832;SDS011;30569;51.252;9.830;2022-12-07T21:44:55;13.20;;;6.13;;
44832;SDS011;30569;51.252;9.830;2022-12-07T21:47:21;13.17;;;6.33;;
44832;SDS011;30569;51.252;9.830;2022-12-07T21:49:47;11.57;;;6.93;;
44832;SDS011;30569;51.252;9.830;2022-12-07T21:52:13;12.17;;;7.30;;
44832;SDS011;30569;51.252;9.830;2022-12-07T21:54:39;14.33;;;7.00;;